CheckWX is a tool to help pilots better visualize weather data.  It is not intended as a substitute for an official pre-flight weather briefing.

21:14:00 UTC

KIWI METAR
Wiscasset Airport
Wiscasset, Maine, USA
Current

21 mins ago

KIWI 112053Z AUTO 17008KT 10SM CLR 24/20 A2973 RMK AO2 SLP065 T02390200 56016
Observed
Jul-11 @ 20:53 UTC
Wind
  • 170° at 8 KTS
Visibility
10 SM
Flight Rules
VFR
Cloud Levels
  • Clear skies
Temperature
24°C / 75°F
Dewpoint
20°C / 68°F
Humidity
78%
Altimeter
29.73" Hg
Pressure
1006.82 hPa
Previous

1 hour ago

KIWI 111953Z AUTO 18009G17KT 150V230 10SM FEW060 24/20 A2973 RMK AO2 SLP066 T02390200
Observed
Jul-11 @ 19:53 UTC
Wind
  • 180° at 9 KTS
  • Gusting to 17 KTS
Visibility
10 SM
Flight Rules
VFR
Cloud Levels
  • Few at 6,000' AGL
Temperature
24°C / 75°F
Dewpoint
20°C / 68°F
Humidity
78%
Altimeter
29.73" Hg
Pressure
1006.82 hPa
Previous

2 hours ago

KIWI 111853Z AUTO 19009KT 10SM SCT070 25/21 A2975 RMK AO2 SLP072 T02500206
Observed
Jul-11 @ 18:53 UTC
Wind
  • 190° at 9 KTS
Visibility
10 SM
Flight Rules
VFR
Cloud Levels
  • Scattered at 7,000' AGL
Temperature
25°C / 77°F
Dewpoint
21°C / 70°F
Humidity
79%
Altimeter
29.75" Hg
Pressure
1007.42 hPa